Time;durP1;ratioP1;P1;durP2;ratioP2;P2;SDS_P1;SDS_P2;PMS_P1;PMS_P2;Temp;Humidity;BMP_temperature;BMP_pressure;BME280_temperature;BME280_humidity;BME280_pressure;Samples;Min_cycle;Max_cycle;Signal;HPM_P1;HPM_P2
2023/12/24 00:00:21;;;;;;;11.38;3.30;;;10.20;91.20;;;;;;9176752;19;20501;-71
2023/12/24 00:03:29;;;;;;;12.38;3.17;;;10.20;91.20;;;;;;9172608;19;20011;-72
2023/12/24 00:06:35;;;;;;;20.52;3.08;;;10.20;91.20;;;;;;9177419;19;20686;-70
2023/12/24 00:09:46;;;;;;;12.30;2.65;;;10.10;91.20;;;;;;9175560;19;20014;-72
2023/12/24 00:12:51;;;;;;;18.90;4.10;;;10.10;91.20;;;;;;9178462;19;20025;-70
2023/12/24 00:15:59;;;;;;;22.50;3.72;;;10.10;91.20;;;;;;9178294;19;20014;-71
2023/12/24 00:19:05;;;;;;;11.85;3.28;;;10.10;91.20;;;;;;9176832;19;20448;-71
2023/12/24 00:22:12;;;;;;;16.25;3.00;;;10.10;91.30;;;;;;9178467;19;20014;-70
2023/12/24 00:25:21;;;;;;;14.45;3.60;;;10.10;91.30;;;;;;9176737;19;20115;-74
2023/12/24 00:28:28;;;;;;;14.18;3.55;;;10.10;91.30;;;;;;9177149;19;20021;-73
2023/12/24 00:31:34;;;;;;;21.05;3.80;;;10.10;91.30;;;;;;9175335;19;20007;-73
2023/12/24 00:34:42;;;;;;;16.38;3.22;;;10.10;91.30;;;;;;9177635;19;20018;-73
2023/12/24 00:37:48;;;;;;;19.60;4.18;;;10.10;91.30;;;;;;9175525;19;20023;-73
2023/12/24 00:40:58;;;;;;;10.05;3.20;;;10.10;91.30;;;;;;9176463;19;20018;-73
2023/12/24 00:44:04;;;;;;;9.65;2.92;;;10.10;91.30;;;;;;9176374;19;20102;-75
2023/12/24 00:47:11;;;;;;;16.88;3.05;;;10.20;91.30;;;;;;9175185;19;20025;-74
2023/12/24 00:50:17;;;;;;;18.67;3.70;;;10.10;91.30;;;;;;9176734;19;20022;-73
2023/12/24 00:53:27;;;;;;;15.90;3.20;;;10.20;91.30;;;;;;9176193;19;20010;-73
2023/12/24 00:56:35;;;;;;;8.38;2.58;;;10.20;91.30;;;;;;9176908;19;20019;-74
2023/12/24 00:59:44;;;;;;;12.50;3.17;;;10.20;91.30;;;;;;9176471;19;20018;-73
2023/12/24 01:02:52;;;;;;;10.07;2.75;;;10.10;91.30;;;;;;9171326;19;20014;-74
2023/12/24 01:06:00;;;;;;;13.93;2.83;;;10.20;91.30;;;;;;9176369;19;20048;-73
2023/12/24 01:09:09;;;;;;;11.30;3.08;;;10.20;91.40;;;;;;9174406;19;20078;-74
2023/12/24 01:12:21;;;;;;;17.33;4.43;;;10.20;91.30;;;;;;9173449;19;20365;-74
2023/12/24 01:15:27;;;;;;;10.77;2.45;;;10.20;91.30;;;;;;9176189;19;20018;-73
2023/12/24 01:18:34;;;;;;;11.00;3.78;;;10.20;91.30;;;;;;9174361;19;20018;-73
2023/12/24 01:21:42;;;;;;;14.98;2.83;;;10.20;91.30;;;;;;9175538;19;20006;-74
2023/12/24 01:24:51;;;;;;;8.65;2.33;;;10.20;91.30;;;;;;9175890;19;20019;-74
2023/12/24 01:27:59;;;;;;;20.23;2.45;;;10.20;91.30;;;;;;9172428;19;20356;-73
2023/12/24 01:31:07;;;;;;;10.45;1.98;;;10.20;91.30;;;;;;9175556;19;20085;-74
2023/12/24 01:34:14;;;;;;;9.77;2.38;;;10.30;91.30;;;;;;9172980;19;20023;-74
2023/12/24 01:37:25;;;;;;;12.15;2.00;;;10.30;91.30;;;;;;9175874;19;20017;-76
2023/12/24 01:40:30;;;;;;;7.20;2.17;;;10.30;91.40;;;;;;9175287;19;20014;-77
2023/12/24 01:43:42;;;;;;;8.35;2.85;;;10.30;91.60;;;;;;9173372;19;20117;-76
2023/12/24 01:46:51;;;;;;;11.52;2.40;;;10.30;91.60;;;;;;9172705;19;20030;-76
2023/12/24 01:50:01;;;;;;;13.45;2.60;;;10.30;91.30;;;;;;9173606;19;20011;-76
2023/12/24 01:53:07;;;;;;;9.68;2.55;;;10.30;91.30;;;;;;9172782;19;20019;-75
2023/12/24 01:56:15;;;;;;;8.18;1.98;;;10.40;91.30;;;;;;9175904;19;20029;-76
2023/12/24 01:59:24;;;;;;;9.07;2.15;;;10.40;91.30;;;;;;9181599;19;20007;-76
2023/12/24 02:02:33;;;;;;;10.18;1.85;;;10.40;91.30;;;;;;9179664;19;20022;-76
2023/12/24 02:05:41;;;;;;;13.00;2.03;;;10.40;91.30;;;;;;9179983;19;20060;-76
2023/12/24 02:08:54;;;;;;;13.27;1.80;;;10.40;91.30;;;;;;9181305;19;20014;-76
2023/12/24 02:12:04;;;;;;;8.90;1.88;;;10.40;91.30;;;;;;9182011;19;20476;-76
2023/12/24 02:15:18;;;;;;;7.80;1.80;;;10.50;91.30;;;;;;9181778;19;20019;-76
2023/12/24 02:18:33;;;;;;;10.05;1.73;;;10.50;91.30;;;;;;9180777;19;20501;-77
2023/12/24 02:21:44;;;;;;;9.88;2.08;;;10.50;91.30;;;;;;9182474;19;20034;-76
2023/12/24 02:24:50;;;;;;;8.05;1.50;;;10.50;91.30;;;;;;9179227;19;20014;-75
2023/12/24 02:28:06;;;;;;;14.65;1.85;;;10.50;91.50;;;;;;9179869;19;20477;-77
2023/12/24 02:31:20;;;;;;;9.27;1.80;;;10.50;91.20;;;;;;9184028;19;20505;-76
2023/12/24 02:34:29;;;;;;;8.43;1.58;;;10.50;91.20;;;;;;9182795;19;20085;-74
2023/12/24 02:37:38;;;;;;;9.32;1.42;;;10.40;91.20;;;;;;9182926;19;20010;-75
2023/12/24 02:40:47;;;;;;;9.80;1.65;;;10.40;91.20;;;;;;9183418;19;20022;-75
2023/12/24 02:43:53;;;;;;;7.00;1.45;;;10.40;91.10;;;;;;9181452;19;20110;-75
2023/12/24 02:47:09;;;;;;;6.50;1.48;;;10.40;91.10;;;;;;9179112;19;20015;-75
2023/12/24 02:50:19;;;;;;;12.32;2.85;;;10.40;91.10;;;;;;9181800;19;20048;-76
2023/12/24 02:53:32;;;;;;;7.18;1.77;;;10.40;91.20;;;;;;9181585;19;20018;-75
2023/12/24 02:56:38;;;;;;;6.38;1.38;;;10.30;91.20;;;;;;9179190;19;20017;-75
2023/12/24 02:59:46;;;;;;;9.25;1.63;;;10.30;91.20;;;;;;9179336;19;20022;-75
2023/12/24 03:02:52;;;;;;;8.60;1.67;;;10.30;91.20;;;;;;9175203;19;20034;-75
2023/12/24 03:06:00;;;;;;;9.50;2.05;;;10.30;91.20;;;;;;9179617;19;20018;-76
2023/12/24 03:09:10;;;;;;;9.45;1.80;;;10.30;91.20;;;;;;9175773;19;20791;-74
2023/12/24 03:12:18;;;;;;;8.38;1.98;;;10.30;91.20;;;;;;9180003;19;20022;-75
2023/12/24 03:15:23;;;;;;;8.48;1.55;;;10.30;91.20;;;;;;9175864;19;20018;-75
2023/12/24 03:18:31;;;;;;;5.57;1.50;;;10.30;91.20;;;;;;9179383;19;20081;-75
2023/12/24 03:21:37;;;;;;;6.88;1.67;;;10.30;91.20;;;;;;9179033;19;20018;-75
2023/12/24 03:24:48;;;;;;;5.10;1.75;;;10.30;91.20;;;;;;9180054;19;20017;-75
2023/12/24 03:27:54;;;;;;;4.45;1.55;;;10.20;91.40;;;;;;9176989;19;20018;-75
2023/12/24 03:31:01;;;;;;;2.63;1.38;;;10.20;91.20;;;;;;9180061;19;20018;-75
2023/12/24 03:34:09;;;;;;;6.10;1.65;;;10.20;91.20;;;;;;9179758;19;20031;-75
2023/12/24 03:37:17;;;;;;;3.25;1.83;;;10.20;91.30;;;;;;9179244;19;20011;-75
2023/12/24 03:40:25;;;;;;;4.15;1.50;;;10.20;91.30;;;;;;9178027;19;20037;-75
2023/12/24 03:43:34;;;;;;;13.10;1.98;;;10.20;91.30;;;;;;9178530;19;20052;-75
2023/12/24 03:46:40;;;;;;;13.32;1.58;;;10.30;91.30;;;;;;9180496;19;20014;-75
2023/12/24 03:49:51;;;;;;;5.03;1.40;;;10.30;91.30;;;;;;9177860;19;20544;-77
2023/12/24 03:52:56;;;;;;;5.90;1.50;;;10.20;91.30;;;;;;9179053;19;20483;-75
2023/12/24 03:56:12;;;;;;;7.15;1.45;;;10.20;91.30;;;;;;9179626;19;20033;-76
2023/12/24 03:59:20;;;;;;;5.82;1.65;;;10.20;91.30;;;;;;9178581;19;20472;-74
2023/12/24 04:02:28;;;;;;;4.78;1.90;;;10.30;91.40;;;;;;9174495;19;20021;-74
2023/12/24 04:05:34;;;;;;;5.72;1.55;;;10.20;91.40;;;;;;9176569;19;20015;-74
2023/12/24 04:08:42;;;;;;;3.55;1.60;;;10.20;91.40;;;;;;9174841;19;20029;-74
2023/12/24 04:11:53;;;;;;;2.30;1.33;;;10.30;91.40;;;;;;9175042;19;20683;-73
2023/12/24 04:15:00;;;;;;;2.92;1.45;;;10.30;91.40;;;;;;9177627;19;20018;-74
2023/12/24 04:18:07;;;;;;;2.95;2.03;;;10.30;91.40;;;;;;9178129;19;20018;-74
2023/12/24 04:21:16;;;;;;;3.80;1.33;;;10.30;91.50;;;;;;9174589;19;20607;-73
2023/12/24 04:24:22;;;;;;;3.55;1.35;;;10.30;91.50;;;;;;9177012;19;20044;-74
2023/12/24 04:27:32;;;;;;;2.95;1.23;;;10.30;91.40;;;;;;9176214;19;20018;-74
2023/12/24 04:30:38;;;;;;;2.90;1.55;;;10.30;91.50;;;;;;9175695;19;20048;-74
2023/12/24 04:33:46;;;;;;;1.77;1.40;;;10.30;91.50;;;;;;9175280;19;20010;-74
2023/12/24 04:36:52;;;;;;;1.70;1.30;;;10.30;91.50;;;;;;9177493;19;20018;-72
2023/12/24 04:40:04;;;;;;;6.88;1.80;;;10.40;91.50;;;;;;9177022;19;20018;-74
2023/12/24 04:43:19;;;;;;;2.35;1.48;;;10.30;91.50;;;;;;9176734;19;20113;-74
2023/12/24 04:46:28;;;;;;;1.88;1.20;;;10.40;91.60;;;;;;9176282;19;20042;-73
2023/12/24 04:49:36;;;;;;;2.33;1.48;;;10.40;91.60;;;;;;9173627;19;20015;-75
2023/12/24 04:52:47;;;;;;;1.30;1.00;;;10.40;91.60;;;;;;9174502;19;20018;-72
2023/12/24 04:55:58;;;;;;;4.05;1.55;;;10.40;91.50;;;;;;9175497;19;20018;-74
2023/12/24 04:59:09;;;;;;;4.97;1.40;;;10.40;91.60;;;;;;9177011;19;20022;-74
2023/12/24 05:02:19;;;;;;;2.38;1.80;;;10.50;91.60;;;;;;9171884;19;20506;-75
2023/12/24 05:05:27;;;;;;;1.95;1.40;;;10.40;91.60;;;;;;9176521;19;20776;-74
2023/12/24 05:08:39;;;;;;;1.30;1.20;;;10.50;91.60;;;;;;9175295;19;20114;-77
2023/12/24 05:11:47;;;;;;;1.33;1.17;;;10.50;91.60;;;;;;9176195;19;20034;-75
2023/12/24 05:14:55;;;;;;;1.33;1.10;;;10.50;91.60;;;;;;9180030;19;20014;-76
2023/12/24 05:18:03;;;;;;;1.30;1.20;;;10.50;91.60;;;;;;9178209;19;20365;-76
2023/12/24 05:21:10;;;;;;;1.55;1.05;;;10.60;91.70;;;;;;9176663;19;20018;-74
2023/12/24 05:24:17;;;;;;;9.02;1.08;;;10.60;91.70;;;;;;9176556;19;20061;-74
2023/12/24 05:27:23;;;;;;;1.30;1.20;;;10.60;91.70;;;;;;9175467;19;20077;-75
2023/12/24 05:30:33;;;;;;;1.00;1.00;;;10.60;91.70;;;;;;9177412;19;20046;-76
2023/12/24 05:33:39;;;;;;;3.28;1.20;;;10.60;91.70;;;;;;9187658;19;20011;-75
2023/12/24 05:36:47;;;;;;;5.10;1.20;;;10.60;91.70;;;;;;9185325;19;20471;-75
2023/12/24 05:39:53;;;;;;;1.42;0.95;;;10.60;91.70;;;;;;9185361;19;20442;-75
2023/12/24 05:43:00;;;;;;;1.55;1.00;;;10.60;91.70;;;;;;9183115;19;20018;-76
2023/12/24 05:46:13;;;;;;;1.55;0.90;;;10.70;91.70;;;;;;9185242;19;20030;-75
2023/12/24 05:49:21;;;;;;;1.20;1.10;;;10.70;91.80;;;;;;9182478;19;20038;-76
2023/12/24 05:52:27;;;;;;;1.10;1.00;;;10.70;91.80;;;;;;9183395;19;20014;-75
2023/12/24 05:55:34;;;;;;;1.20;1.08;;;10.70;91.80;;;;;;9182723;19;20018;-74
2023/12/24 05:58:40;;;;;;;0.80;0.80;;;10.70;91.80;;;;;;9183318;19;20029;-75
2023/12/24 06:01:51;;;;;;;1.00;0.88;;;10.70;91.80;;;;;;9184055;19;20022;-78
2023/12/24 06:04:56;;;;;;;1.10;0.90;;;10.70;91.80;;;;;;9176347;19;20030;-75
2023/12/24 06:08:04;;;;;;;0.73;0.73;;;10.80;91.80;;;;;;9181339;19;20025;-76
2023/12/24 06:11:17;;;;;;;1.85;1.00;;;10.80;91.80;;;;;;9181288;19;20612;-75
2023/12/24 06:14:25;;;;;;;0.60;0.60;;;10.80;91.80;;;;;;9185935;19;20472;-74
2023/12/24 06:17:33;;;;;;;1.02;0.82;;;10.80;92.10;;;;;;9186188;19;20018;-74
2023/12/24 06:20:41;;;;;;;2.55;0.73;;;10.90;91.90;;;;;;9183521;19;20018;-75
2023/12/24 06:23:47;;;;;;;1.27;0.73;;;10.90;91.80;;;;;;9182275;19;20010;-75
2023/12/24 06:26:54;;;;;;;0.63;0.63;;;10.90;91.80;;;;;;9181424;19;20480;-76
2023/12/24 06:30:00;;;;;;;1.02;0.85;;;10.90;91.80;;;;;;9180010;19;20456;-76
2023/12/24 06:33:10;;;;;;;0.47;0.47;;;10.90;91.80;;;;;;9180500;19;20014;-75
2023/12/24 06:36:16;;;;;;;1.48;0.75;;;10.90;91.80;;;;;;9180101;19;20074;-75
2023/12/24 06:39:24;;;;;;;0.68;0.68;;;11.00;91.90;;;;;;9181848;19;20017;-75
2023/12/24 06:42:30;;;;;;;1.55;0.75;;;11.00;91.90;;;;;;9178840;19;20025;-75
2023/12/24 06:45:37;;;;;;;0.50;0.50;;;11.00;91.90;;;;;;9181297;19;20025;-75
2023/12/24 06:48:47;;;;;;;1.63;0.63;;;11.00;91.90;;;;;;9180610;19;20015;-75
2023/12/24 06:51:54;;;;;;;0.50;0.50;;;11.00;91.90;;;;;;9181921;19;20014;-75
2023/12/24 06:55:00;;;;;;;0.50;0.50;;;11.10;91.90;;;;;;9181609;19;20011;-75
2023/12/24 06:58:07;;;;;;;1.10;0.80;;;11.10;91.90;;;;;;9181545;19;20033;-77
2023/12/24 07:01:13;;;;;;;1.50;0.57;;;11.10;91.90;;;;;;9178636;19;20021;-75
2023/12/24 07:04:23;;;;;;;0.50;0.50;;;11.10;91.90;;;;;;9175583;19;20014;-76
2023/12/24 07:07:31;;;;;;;0.70;0.65;;;11.10;91.90;;;;;;9179029;19;20062;-74
2023/12/24 07:10:39;;;;;;;0.77;0.77;;;11.10;91.90;;;;;;9180151;19;20353;-75
2023/12/24 07:13:45;;;;;;;0.60;0.60;;;11.20;91.90;;;;;;9179028;19;20373;-75
2023/12/24 07:16:52;;;;;;;1.05;0.90;;;11.20;91.90;;;;;;9181364;19;20021;-76
2023/12/24 07:20:02;;;;;;;1.10;1.00;;;11.20;91.90;;;;;;9179019;19;20571;-75
2023/12/24 07:23:10;;;;;;;1.08;0.68;;;11.20;92.00;;;;;;9181607;19;20334;-76
2023/12/24 07:26:15;;;;;;;1.10;1.00;;;11.20;91.90;;;;;;9180121;19;20376;-75
2023/12/24 07:29:23;;;;;;;1.77;0.75;;;11.30;92.00;;;;;;9179773;19;20019;-75
2023/12/24 07:32:29;;;;;;;1.45;0.88;;;11.30;92.00;;;;;;9180618;19;20022;-75
2023/12/24 07:35:39;;;;;;;0.65;0.65;;;11.30;92.00;;;;;;9177454;19;20029;-75
2023/12/24 07:38:45;;;;;;;0.73;0.65;;;11.30;92.00;;;;;;9179509;19;20022;-76
2023/12/24 07:41:55;;;;;;;0.50;0.50;;;11.30;92.00;;;;;;9179211;19;20015;-76
2023/12/24 07:45:03;;;;;;;1.02;0.77;;;11.30;92.00;;;;;;9179405;19;20368;-77
2023/12/24 07:48:11;;;;;;;1.13;0.70;;;11.30;92.00;;;;;;9178921;19;20015;-75
2023/12/24 07:51:20;;;;;;;0.70;0.60;;;11.40;92.00;;;;;;9176090;19;20030;-77
2023/12/24 07:54:30;;;;;;;0.90;0.70;;;11.40;92.00;;;;;;9176953;19;20018;-77
2023/12/24 07:57:39;;;;;;;1.15;0.65;;;11.40;92.00;;;;;;9176666;19;20583;-76
2023/12/24 08:00:54;;;;;;;1.63;0.77;;;11.40;92.00;;;;;;9178779;19;20373;-78
2023/12/24 08:04:00;;;;;;;1.05;0.85;;;11.40;92.10;;;;;;9175453;19;20036;-75
2023/12/24 08:07:16;;;;;;;0.98;0.65;;;11.40;92.10;;;;;;9175718;19;20010;-77
2023/12/24 08:10:24;;;;;;;2.67;1.10;;;11.50;92.10;;;;;;9177824;19;20025;-77
2023/12/24 08:13:32;;;;;;;1.05;0.82;;;11.40;92.10;;;;;;9177528;19;20023;-76
2023/12/24 08:16:38;;;;;;;0.88;0.80;;;11.50;92.10;;;;;;9179107;19;20017;-76
2023/12/24 08:19:54;;;;;;;4.90;1.33;;;11.50;92.10;;;;;;9178627;19;20914;-75
2023/12/24 08:23:06;;;;;;;2.75;1.45;;;11.50;92.10;;;;;;9176405;19;20104;-76
2023/12/24 08:26:14;;;;;;;2.63;0.90;;;11.50;92.10;;;;;;9177111;19;20007;-75
2023/12/24 08:29:19;;;;;;;3.65;1.00;;;11.50;92.10;;;;;;9177332;19;20030;-76
2023/12/24 08:32:27;;;;;;;0.77;0.77;;;11.60;92.10;;;;;;9175321;19;20018;-76
2023/12/24 08:35:36;;;;;;;2.75;1.00;;;11.60;92.10;;;;;;9175807;19;20022;-76
2023/12/24 08:38:46;;;;;;;2.15;0.77;;;11.50;92.10;;;;;;9177046;19;20014;-74
2023/12/24 08:41:51;;;;;;;0.70;0.68;;;11.60;92.10;;;;;;9176510;19;20046;-74
2023/12/24 08:44:59;;;;;;;1.17;0.75;;;11.60;92.10;;;;;;9176305;19;20022;-74
2023/12/24 08:48:05;;;;;;;0.93;0.70;;;11.60;92.10;;;;;;9176387;19;20011;-74
2023/12/24 08:51:20;;;;;;;0.90;0.60;;;11.60;92.20;;;;;;9172906;19;20355;-74
2023/12/24 08:54:34;;;;;;;3.72;0.70;;;11.70;92.20;;;;;;9176969;19;20011;-74
2023/12/24 08:57:47;;;;;;;1.38;1.02;;;11.70;92.20;;;;;;9177219;19;20026;-75
2023/12/24 09:01:01;;;;;;;1.08;0.82;;;11.70;92.20;;;;;;9176448;19;20042;-74
2023/12/24 09:04:12;;;;;;;4.33;1.23;;;11.70;92.20;;;;;;9172772;19;20025;-73
2023/12/24 09:07:20;;;;;;;2.17;0.82;;;11.70;92.20;;;;;;9174070;19;20018;-74
2023/12/24 09:10:33;;;;;;;1.08;0.80;;;11.70;92.20;;;;;;9174674;19;20091;-74
2023/12/24 09:13:39;;;;;;;3.65;0.98;;;11.80;92.20;;;;;;9174785;19;20011;-75
2023/12/24 09:16:52;;;;;;;1.58;1.10;;;11.70;92.20;;;;;;9175039;19;20018;-76
2023/12/24 09:20:00;;;;;;;1.02;0.80;;;11.80;92.20;;;;;;9174192;19;20018;-75
2023/12/24 09:23:16;;;;;;;2.22;0.90;;;11.80;92.20;;;;;;9175967;19;20017;-75
2023/12/24 09:26:25;;;;;;;2.25;1.10;;;11.80;92.20;;;;;;9172305;19;20037;-75
2023/12/24 09:29:37;;;;;;;3.30;0.88;;;11.80;92.20;;;;;;9174046;19;20011;-74
2023/12/24 09:32:45;;;;;;;1.75;0.98;;;11.90;92.20;;;;;;9172092;19;20031;-74
2023/12/24 09:35:53;;;;;;;0.98;0.80;;;11.90;92.20;;;;;;9174771;19;20003;-74
2023/12/24 09:39:01;;;;;;;3.10;0.70;;;11.90;92.50;;;;;;9171930;19;20086;-74
2023/12/24 09:42:15;;;;;;;1.45;0.50;;;11.90;92.30;;;;;;9174781;19;20129;-75
2023/12/24 09:45:24;;;;;;;2.58;0.57;;;11.90;92.30;;;;;;9173555;19;20014;-75
2023/12/24 09:48:36;;;;;;;3.70;0.65;;;11.90;92.30;;;;;;9171965;19;20007;-76
2023/12/24 09:51:45;;;;;;;1.83;1.10;;;11.80;92.20;;;;;;9171985;19;20525;-76
2023/12/24 09:54:54;;;;;;;0.85;0.65;;;12.00;92.30;;;;;;9174549;19;20014;-75
2023/12/24 09:58:03;;;;;;;4.55;0.45;;;12.00;92.30;;;;;;9172416;19;20022;-76
2023/12/24 10:01:14;;;;;;;2.42;0.70;;;12.00;92.30;;;;;;9171514;19;20583;-78
2023/12/24 10:04:26;;;;;;;4.32;0.65;;;12.00;92.30;;;;;;9168573;19;20026;-78
2023/12/24 10:07:40;;;;;;;7.72;1.90;;;12.00;92.30;;;;;;9173738;19;20015;-73
2023/12/24 10:10:46;;;;;;;2.90;1.20;;;12.00;92.30;;;;;;9169470;19;20052;-76
2023/12/24 10:14:03;;;;;;;7.15;0.90;;;12.10;92.30;;;;;;9172348;19;20023;-77
2023/12/24 10:17:10;;;;;;;1.65;0.57;;;12.10;92.30;;;;;;9172103;19;20010;-78
2023/12/24 10:20:18;;;;;;;0.75;0.52;;;12.10;92.30;;;;;;9180122;19;20017;-75
2023/12/24 10:23:23;;;;;;;2.42;0.80;;;12.10;92.30;;;;;;9182874;19;20018;-75
2023/12/24 10:26:31;;;;;;;0.73;0.63;;;12.10;92.30;;;;;;9178786;19;20622;-76
2023/12/24 10:29:42;;;;;;;0.75;0.55;;;12.10;92.40;;;;;;9181377;19;20022;-75
2023/12/24 10:32:50;;;;;;;0.63;0.55;;;12.20;92.40;;;;;;9179456;19;20010;-76
2023/12/24 10:35:59;;;;;;;2.42;0.82;;;12.10;92.30;;;;;;9180112;19;20022;-78
2023/12/24 10:39:17;;;;;;;2.75;0.75;;;12.20;92.30;;;;;;9180689;19;20022;-75
2023/12/24 10:42:23;;;;;;;4.90;0.90;;;12.20;92.40;;;;;;9182044;19;20018;-76
2023/12/24 10:45:33;;;;;;;1.45;1.02;;;12.20;92.40;;;;;;9177875;19;20019;-75
2023/12/24 10:48:38;;;;;;;2.33;1.10;;;12.20;92.30;;;;;;9178947;19;20373;-76
2023/12/24 10:51:46;;;;;;;2.05;1.42;;;12.20;92.40;;;;;;9176710;19;20026;-75
2023/12/24 10:54:53;;;;;;;1.70;1.05;;;12.40;92.50;;;;;;9178614;19;20503;-75
2023/12/24 10:58:07;;;;;;;5.10;1.77;;;12.20;92.40;;;;;;9181304;19;20014;-76
2023/12/24 11:01:18;;;;;;;6.35;1.40;;;12.20;92.40;;;;;;9182764;19;20348;-76
2023/12/24 11:04:44;;;;;;;5.80;1.73;;;12.20;92.40;;;;;;9173889;19;20023;-77
2023/12/24 11:07:51;;;;;;;2.47;1.25;;;12.30;92.40;;;;;;9175716;19;20029;-75
2023/12/24 11:11:01;;;;;;;2.95;1.70;;;12.30;92.40;;;;;;9179469;19;20015;-76
2023/12/24 11:14:07;;;;;;;8.23;2.38;;;12.30;92.70;;;;;;9178188;19;20543;-75
2023/12/24 11:17:55;;;;;;;7.80;2.15;;;12.30;92.40;;;;;;9181346;19;20014;-75
2023/12/24 11:21:11;;;;;;;10.48;2.20;;;12.30;92.50;;;;;;9181466;19;20046;-76
2023/12/24 11:24:24;;;;;;;15.35;3.15;;;12.30;92.40;;;;;;9179084;19;20026;-75
2023/12/24 11:27:56;;;;;;;13.65;2.42;;;12.40;92.50;;;;;;9179704;19;20404;-75
2023/12/24 11:31:08;;;;;;;9.50;3.60;;;12.40;92.50;;;;;;9180308;19;20041;-75
2023/12/24 11:34:34;;;;;;;18.70;2.63;;;12.40;92.50;;;;;;9179899;19;20010;-76
2023/12/24 11:37:42;;;;;;;15.23;3.28;;;12.40;92.60;;;;;;9176541;19;20606;-76
2023/12/24 11:40:47;;;;;;;13.90;3.03;;;12.40;92.50;;;;;;9179533;19;20018;-76
2023/12/24 11:43:57;;;;;;;17.83;3.53;;;12.50;92.50;;;;;;9181256;19;20018;-76
2023/12/24 11:47:03;;;;;;;25.20;5.07;;;12.50;92.50;;;;;;9180990;19;20697;-77
2023/12/24 11:50:15;;;;;;;36.33;4.60;;;12.50;92.60;;;;;;9180829;19;20026;-76
2023/12/24 11:53:21;;;;;;;23.08;4.15;;;12.50;92.50;;;;;;9177620;19;20022;-75
2023/12/24 11:56:31;;;;;;;21.58;3.58;;;12.50;92.50;;;;;;9179214;19;20018;-75
2023/12/24 11:59:36;;;;;;;25.52;3.95;;;12.50;92.60;;;;;;9179774;19;20109;-77
2023/12/24 12:02:44;;;;;;;18.83;4.05;;;12.50;92.60;;;;;;9175321;19;20030;-76
2023/12/24 12:05:53;;;;;;;24.67;4.20;;;12.60;92.60;;;;;;9178742;19;20082;-75
2023/12/24 12:09:06;;;;;;;26.35;4.03;;;12.60;92.60;;;;;;9174883;19;20022;-73
2023/12/24 12:12:11;;;;;;;19.40;4.15;;;12.60;92.60;;;;;;9178502;19;20371;-73
2023/12/24 12:15:23;;;;;;;25.95;3.60;;;12.60;92.60;;;;;;9178136;19;20018;-74
2023/12/24 12:18:29;;;;;;;20.88;3.30;;;12.60;92.60;;;;;;9177867;19;20021;-73
2023/12/24 12:21:39;;;;;;;26.35;4.25;;;12.60;92.60;;;;;;9178180;19;20018;-73
2023/12/24 12:24:47;;;;;;;20.60;3.17;;;12.70;92.60;;;;;;9177682;19;20451;-73
2023/12/24 12:27:55;;;;;;;17.10;3.33;;;12.70;92.60;;;;;;9175074;19;20022;-73
2023/12/24 12:31:00;;;;;;;11.80;2.42;;;12.70;92.60;;;;;;9175241;19;20613;-74
2023/12/24 12:34:08;;;;;;;14.32;2.15;;;12.70;92.60;;;;;;9173523;19;20010;-73
2023/12/24 12:37:16;;;;;;;13.35;2.33;;;12.70;92.60;;;;;;9172061;19;20015;-73
2023/12/24 12:40:23;;;;;;;15.68;2.53;;;12.70;92.60;;;;;;9171538;19;20013;-74
2023/12/24 12:43:44;;;;;;;11.73;1.88;;;12.70;92.50;;;;;;9138906;19;20014;-74
2023/12/24 12:46:52;;;;;;;12.43;1.85;;;12.80;92.60;;;;;;9132307;19;20605;-75
2023/12/24 12:49:58;;;;;;;17.33;2.22;;;12.80;92.60;;;;;;9143929;19;20027;-74
2023/12/24 12:53:09;;;;;;;13.45;2.30;;;12.80;92.60;;;;;;9171273;19;20018;-74
2023/12/24 12:56:14;;;;;;;9.27;1.52;;;12.80;92.60;;;;;;9174186;19;20638;-74
2023/12/24 12:59:24;;;;;;;5.55;1.73;;;12.80;92.60;;;;;;9175601;19;20022;-74
2023/12/24 13:02:29;;;;;;;6.93;1.58;;;12.80;92.50;;;;;;9172526;19;20013;-73
2023/12/24 13:05:38;;;;;;;10.43;1.67;;;12.80;92.60;;;;;;9173558;19;20014;-73
2023/12/24 13:08:49;;;;;;;6.00;1.80;;;12.80;92.50;;;;;;9175983;19;20014;-74
2023/12/24 13:12:06;;;;;;;7.20;1.33;;;12.80;92.60;;;;;;9175271;19;20029;-75
2023/12/24 13:15:14;;;;;;;4.07;1.00;;;12.90;92.60;;;;;;9174048;19;20017;-74
2023/12/24 13:18:27;;;;;;;6.53;1.40;;;12.90;92.60;;;;;;9174579;19;20086;-72
2023/12/24 13:21:35;;;;;;;4.38;0.90;;;12.90;92.50;;;;;;9170983;19;20488;-72
2023/12/24 13:24:47;;;;;;;6.38;1.27;;;12.90;92.50;;;;;;9172694;19;20011;-71
2023/12/24 13:27:52;;;;;;;3.13;1.35;;;12.90;92.60;;;;;;9174278;19;20369;-71
2023/12/24 13:31:00;;;;;;;2.67;1.13;;;12.90;92.60;;;;;;9173859;19;20021;-73
2023/12/24 13:34:08;;;;;;;3.75;1.15;;;12.90;92.60;;;;;;9173164;19;20029;-70
2023/12/24 13:37:18;;;;;;;4.47;1.05;;;12.90;92.60;;;;;;9174047;19;20011;-71
2023/12/24 13:40:26;;;;;;;4.35;1.15;;;12.90;92.60;;;;;;9174704;19;20078;-72
2023/12/24 13:43:33;;;;;;;5.10;1.20;;;12.90;92.60;;;;;;9175653;19;20014;-70
2023/12/24 13:46:40;;;;;;;5.78;1.30;;;12.90;92.60;;;;;;9174861;19;20031;-70
2023/12/24 13:49:47;;;;;;;8.18;1.92;;;12.90;92.60;;;;;;9173440;19;20010;-70
2023/12/24 13:52:54;;;;;;;4.93;1.10;;;13.00;92.60;;;;;;9174633;19;20020;-70
2023/12/24 13:56:05;;;;;;;9.20;1.60;;;13.00;92.60;;;;;;9180748;19;20014;-71
2023/12/24 13:59:10;;;;;;;2.97;1.00;;;13.00;92.60;;;;;;9180655;19;20444;-71
2023/12/24 14:02:18;;;;;;;5.03;1.10;;;13.00;92.60;;;;;;9177590;19;20080;-72
2023/12/24 14:05:26;;;;;;;4.32;1.20;;;13.00;92.60;;;;;;9179879;19;20025;-73
2023/12/24 14:08:38;;;;;;;3.10;1.17;;;13.00;92.50;;;;;;9179783;19;20369;-75
2023/12/24 14:11:46;;;;;;;4.38;0.98;;;13.00;92.60;;;;;;9179508;19;20018;-71
2023/12/24 14:14:54;;;;;;;4.15;1.30;;;13.00;92.90;;;;;;9175513;19;20021;-71
2023/12/24 14:18:01;;;;;;;3.67;1.30;;;13.00;92.60;;;;;;9180101;19;20026;-71
2023/12/24 14:21:09;;;;;;;4.05;1.20;;;13.00;92.60;;;;;;9178146;19;20010;-75
2023/12/24 14:24:15;;;;;;;5.43;1.23;;;13.00;92.60;;;;;;9178833;19;20027;-72
2023/12/24 14:27:25;;;;;;;6.72;1.52;;;13.00;92.60;;;;;;9180818;19;20018;-76
2023/12/24 14:30:31;;;;;;;5.93;1.40;;;13.00;92.60;;;;;;9174687;19;20025;-76
2023/12/24 14:33:39;;;;;;;5.10;1.35;;;13.10;92.70;;;;;;9179609;19;20022;-75
2023/12/24 14:36:45;;;;;;;8.25;1.58;;;13.10;92.60;;;;;;9179512;19;20024;-75
2023/12/24 14:39:52;;;;;;;6.07;1.10;;;13.00;92.60;;;;;;9177380;19;20023;-76
2023/12/24 14:43:01;;;;;;;4.97;1.50;;;13.10;92.60;;;;;;9181088;19;20018;-75
2023/12/24 14:46:08;;;;;;;6.78;1.33;;;13.10;92.60;;;;;;9180053;19;20498;-76
2023/12/24 14:49:14;;;;;;;1.60;1.02;;;13.10;92.60;;;;;;9178318;19;20496;-76
2023/12/24 14:52:22;;;;;;;2.63;1.30;;;13.10;92.60;;;;;;9179153;19;20027;-75
2023/12/24 14:55:27;;;;;;;10.77;1.50;;;13.10;92.60;;;;;;9178089;19;20022;-75
2023/12/24 14:58:38;;;;;;;4.57;1.10;;;13.10;92.60;;;;;;9180644;19;20025;-75
2023/12/24 15:01:47;;;;;;;9.50;1.40;;;13.10;92.60;;;;;;9176513;19;20011;-76
2023/12/24 15:04:55;;;;;;;5.57;1.20;;;13.10;92.70;;;;;;9173148;19;20014;-75
2023/12/24 15:08:01;;;;;;;2.03;0.95;;;13.10;92.90;;;;;;9174475;19;20022;-75
2023/12/24 15:11:09;;;;;;;3.80;1.48;;;13.10;92.60;;;;;;9178878;19;20017;-75
2023/12/24 15:14:17;;;;;;;5.68;1.42;;;13.20;92.70;;;;;;9177441;19;20050;-75
2023/12/24 15:17:27;;;;;;;3.60;1.75;;;13.20;92.70;;;;;;9178278;19;20018;-75
2023/12/24 15:20:34;;;;;;;8.88;1.80;;;13.20;92.60;;;;;;9178535;19;20026;-76
2023/12/24 15:23:42;;;;;;;8.18;1.90;;;13.20;92.60;;;;;;9177958;19;20025;-75
2023/12/24 15:26:48;;;;;;;6.68;1.58;;;13.20;92.70;;;;;;9175018;19;20025;-75
2023/12/24 15:29:58;;;;;;;8.60;2.42;;;13.20;92.60;;;;;;9176993;19;20018;-76
2023/12/24 15:33:05;;;;;;;17.67;2.25;;;13.20;92.60;;;;;;9177970;19;20010;-75
2023/12/24 15:36:12;;;;;;;6.63;1.88;;;13.20;92.60;;;;;;9176286;19;20019;-76
2023/12/24 15:39:18;;;;;;;7.90;1.92;;;13.20;92.60;;;;;;9174792;19;20107;-71
2023/12/24 15:42:29;;;;;;;8.20;2.05;;;13.20;92.60;;;;;;9175952;19;20007;-71
2023/12/24 15:45:38;;;;;;;5.70;1.38;;;13.20;92.60;;;;;;9175064;19;20857;-73
2023/12/24 15:48:49;;;;;;;8.57;1.27;;;13.20;92.60;;;;;;9177801;19;20014;-71
2023/12/24 15:51:55;;;;;;;3.30;1.30;;;13.20;92.60;;;;;;9178795;19;20018;-71
2023/12/24 15:55:02;;;;;;;5.78;1.73;;;13.20;92.60;;;;;;9176257;19;20554;-72
2023/12/24 15:58:08;;;;;;;6.05;1.73;;;13.20;92.60;;;;;;9176052;19;20066;-71
2023/12/24 16:01:19;;;;;;;4.57;1.20;;;13.20;92.60;;;;;;9179254;19;20962;-73
2023/12/24 16:04:24;;;;;;;1.75;1.20;;;13.20;92.60;;;;;;9172510;19;20476;-72
2023/12/24 16:07:32;;;;;;;7.32;1.33;;;13.20;92.60;;;;;;9173473;19;20010;-72
2023/12/24 16:10:37;;;;;;;4.72;0.90;;;13.20;92.60;;;;;;9177473;19;20018;-72
2023/12/24 16:13:45;;;;;;;6.47;1.13;;;13.20;92.70;;;;;;9177177;19;20479;-73
2023/12/24 16:16:53;;;;;;;4.55;1.20;;;13.20;92.60;;;;;;9174341;19;20014;-72
2023/12/24 16:20:01;;;;;;;4.07;1.40;;;13.20;92.60;;;;;;9178306;19;20368;-71